Tulpehocken, Pennsylvania
Current Conditions -  °F | °C
As of 4:54 AM on Sunday 25 Jan 2015 (Local Time) from KRDG Reporting Station
Overcast Overcast  
Wind Chill: 30°   Ceiling: 5500
Heat Index: 36°   Visibility: 10mi
Dew Point: 26°   Wind: 8mph
Humidity: 67%   Direction: 260°W
Pressure: 29.65"   Gusts: NA
Location:  40.4577°N, 76.2444°W
Report Text: KRDG 250954Z AUTO 26007KT 10SM OVC055 02/M03 A2965 RMK AO2 SLP049 T00221033
Loading
Personal Weather Stations






























Interactive Weather Map New forecast layout! Learn more

10-Day Weather Forecast

Advertisements
Track Severe Weather on mobile